sensor_id;sensor_type;location;lat;lon;timestamp;P1;durP1;ratioP1;P2;durP2;ratioP2
13741;SDS011;8461;52.356;10.704;2023-03-14T00:00:29;1.67;;;1.00;;
13741;SDS011;8461;52.356;10.704;2023-03-14T00:02:55;2.07;;;1.30;;
13741;SDS011;8461;52.356;10.704;2023-03-14T00:05:20;1.60;;;1.17;;
13741;SDS011;8461;52.356;10.704;2023-03-14T00:07:46;0.97;;;0.97;;
13741;SDS011;8461;52.356;10.704;2023-03-14T00:10:13;3.30;;;1.40;;
13741;SDS011;8461;52.356;10.704;2023-03-14T00:12:39;1.73;;;1.10;;
13741;SDS011;8461;52.356;10.704;2023-03-14T00:15:05;2.33;;;1.43;;
13741;SDS011;8461;52.356;10.704;2023-03-14T00:17:32;2.50;;;1.47;;
13741;SDS011;8461;52.356;10.704;2023-03-14T00:19:58;3.63;;;1.13;;
13741;SDS011;8461;52.356;10.704;2023-03-14T00:22:33;3.57;;;1.10;;
13741;SDS011;8461;52.356;10.704;2023-03-14T00:24:59;4.20;;;1.60;;
13741;SDS011;8461;52.356;10.704;2023-03-14T00:27:25;2.27;;;1.20;;
13741;SDS011;8461;52.356;10.704;2023-03-14T00:29:51;1.60;;;1.27;;
13741;SDS011;8461;52.356;10.704;2023-03-14T00:32:17;1.93;;;1.00;;
13741;SDS011;8461;52.356;10.704;2023-03-14T00:34:42;3.37;;;1.37;;
13741;SDS011;8461;52.356;10.704;2023-03-14T00:37:08;1.73;;;1.07;;
13741;SDS011;8461;52.356;10.704;2023-03-14T00:39:33;1.40;;;1.10;;
13741;SDS011;8461;52.356;10.704;2023-03-14T00:41:59;2.70;;;1.40;;
13741;SDS011;8461;52.356;10.704;2023-03-14T00:44:25;2.23;;;1.50;;
13741;SDS011;8461;52.356;10.704;2023-03-14T00:46:50;2.53;;;1.03;;
13741;SDS011;8461;52.356;10.704;2023-03-14T00:49:16;1.20;;;1.10;;
13741;SDS011;8461;52.356;10.704;2023-03-14T00:51:41;4.33;;;1.40;;
13741;SDS011;8461;52.356;10.704;2023-03-14T00:54:07;1.80;;;1.40;;
13741;SDS011;8461;52.356;10.704;2023-03-14T00:56:32;4.30;;;1.07;;
13741;SDS011;8461;52.356;10.704;2023-03-14T00:58:58;2.70;;;1.20;;
13741;SDS011;8461;52.356;10.704;2023-03-14T01:01:24;1.70;;;1.10;;
13741;SDS011;8461;52.356;10.704;2023-03-14T01:03:52;2.90;;;1.30;;
13741;SDS011;8461;52.356;10.704;2023-03-14T01:06:21;2.10;;;1.07;;
13741;SDS011;8461;52.356;10.704;2023-03-14T01:08:51;1.93;;;1.43;;
13741;SDS011;8461;52.356;10.704;2023-03-14T01:11:19;2.00;;;0.93;;
13741;SDS011;8461;52.356;10.704;2023-03-14T01:13:50;2.03;;;1.00;;
13741;SDS011;8461;52.356;10.704;2023-03-14T01:16:16;3.03;;;0.90;;
13741;SDS011;8461;52.356;10.704;2023-03-14T01:18:44;2.70;;;1.23;;
13741;SDS011;8461;52.356;10.704;2023-03-14T01:21:11;1.73;;;1.00;;
13741;SDS011;8461;52.356;10.704;2023-03-14T01:23:39;1.30;;;1.10;;
13741;SDS011;8461;52.356;10.704;2023-03-14T01:26:07;3.50;;;1.00;;
13741;SDS011;8461;52.356;10.704;2023-03-14T01:28:35;3.13;;;1.10;;
13741;SDS011;8461;52.356;10.704;2023-03-14T01:31:04;0.97;;;0.77;;
13741;SDS011;8461;52.356;10.704;2023-03-14T01:33:31;0.80;;;0.60;;
13741;SDS011;8461;52.356;10.704;2023-03-14T01:35:57;2.40;;;0.90;;
13741;SDS011;8461;52.356;10.704;2023-03-14T01:38:22;2.57;;;0.90;;
13741;SDS011;8461;52.356;10.704;2023-03-14T01:40:48;4.10;;;0.90;;
13741;SDS011;8461;52.356;10.704;2023-03-14T01:43:15;2.13;;;1.10;;
13741;SDS011;8461;52.356;10.704;2023-03-14T01:48:35;1.97;;;0.90;;
13741;SDS011;8461;52.356;10.704;2023-03-14T01:51:09;2.30;;;0.80;;
13741;SDS011;8461;52.356;10.704;2023-03-14T01:53:38;2.33;;;0.83;;
13741;SDS011;8461;52.356;10.704;2023-03-14T01:56:07;1.63;;;0.90;;
13741;SDS011;8461;52.356;10.704;2023-03-14T01:58:36;2.53;;;0.73;;
13741;SDS011;8461;52.356;10.704;2023-03-14T02:01:04;1.47;;;0.80;;
13741;SDS011;8461;52.356;10.704;2023-03-14T02:03:31;2.77;;;0.77;;
13741;SDS011;8461;52.356;10.704;2023-03-14T02:06:04;3.80;;;0.80;;
13741;SDS011;8461;52.356;10.704;2023-03-14T02:08:32;2.23;;;0.63;;
13741;SDS011;8461;52.356;10.704;2023-03-14T02:11:00;1.03;;;0.50;;
13741;SDS011;8461;52.356;10.704;2023-03-14T02:13:25;0.97;;;0.67;;
13741;SDS011;8461;52.356;10.704;2023-03-14T02:15:51;0.60;;;0.40;;
13741;SDS011;8461;52.356;10.704;2023-03-14T02:18:17;0.53;;;0.40;;
13741;SDS011;8461;52.356;10.704;2023-03-14T02:20:52;2.40;;;0.40;;
13741;SDS011;8461;52.356;10.704;2023-03-14T02:25:58;2.73;;;0.47;;
13741;SDS011;8461;52.356;10.704;2023-03-14T02:28:30;1.90;;;0.67;;
13741;SDS011;8461;52.356;10.704;2023-03-14T02:30:56;1.50;;;0.60;;
13741;SDS011;8461;52.356;10.704;2023-03-14T02:33:22;1.53;;;0.57;;
13741;SDS011;8461;52.356;10.704;2023-03-14T02:41:11;0.67;;;0.33;;
13741;SDS011;8461;52.356;10.704;2023-03-14T02:43:36;1.20;;;0.50;;
13741;SDS011;8461;52.356;10.704;2023-03-14T02:46:03;0.97;;;0.63;;
13741;SDS011;8461;52.356;10.704;2023-03-14T02:48:35;1.83;;;0.70;;
13741;SDS011;8461;52.356;10.704;2023-03-14T02:51:05;1.57;;;0.60;;
13741;SDS011;8461;52.356;10.704;2023-03-14T02:53:33;0.87;;;0.53;;
13741;SDS011;8461;52.356;10.704;2023-03-14T02:56:00;0.93;;;0.70;;
13741;SDS011;8461;52.356;10.704;2023-03-14T02:58:26;1.17;;;0.40;;
13741;SDS011;8461;52.356;10.704;2023-03-14T03:00:52;0.67;;;0.47;;
13741;SDS011;8461;52.356;10.704;2023-03-14T03:03:17;1.73;;;0.70;;
13741;SDS011;8461;52.356;10.704;2023-03-14T03:05:43;1.47;;;0.47;;
13741;SDS011;8461;52.356;10.704;2023-03-14T03:08:13;2.40;;;0.60;;
13741;SDS011;8461;52.356;10.704;2023-03-14T03:10:39;1.57;;;0.87;;
13741;SDS011;8461;52.356;10.704;2023-03-14T03:13:05;3.37;;;0.90;;
13741;SDS011;8461;52.356;10.704;2023-03-14T03:15:30;3.63;;;0.70;;
13741;SDS011;8461;52.356;10.704;2023-03-14T03:17:56;1.30;;;0.80;;
13741;SDS011;8461;52.356;10.704;2023-03-14T03:20:21;3.73;;;0.90;;
13741;SDS011;8461;52.356;10.704;2023-03-14T03:22:47;2.27;;;0.57;;
13741;SDS011;8461;52.356;10.704;2023-03-14T03:25:14;2.37;;;0.60;;
13741;SDS011;8461;52.356;10.704;2023-03-14T03:27:40;1.60;;;0.70;;
13741;SDS011;8461;52.356;10.704;2023-03-14T03:30:06;1.40;;;0.60;;
13741;SDS011;8461;52.356;10.704;2023-03-14T03:32:33;1.80;;;0.70;;
13741;SDS011;8461;52.356;10.704;2023-03-14T03:34:59;0.80;;;0.60;;
13741;SDS011;8461;52.356;10.704;2023-03-14T03:37:24;1.43;;;0.80;;
13741;SDS011;8461;52.356;10.704;2023-03-14T03:39:50;0.87;;;0.50;;
13741;SDS011;8461;52.356;10.704;2023-03-14T03:42:17;1.10;;;0.87;;
13741;SDS011;8461;52.356;10.704;2023-03-14T03:44:43;2.43;;;0.70;;
13741;SDS011;8461;52.356;10.704;2023-03-14T03:47:09;1.10;;;0.70;;
13741;SDS011;8461;52.356;10.704;2023-03-14T03:49:34;2.30;;;0.70;;
13741;SDS011;8461;52.356;10.704;2023-03-14T03:52:00;2.27;;;0.83;;
13741;SDS011;8461;52.356;10.704;2023-03-14T03:54:25;1.50;;;0.70;;
13741;SDS011;8461;52.356;10.704;2023-03-14T03:56:52;3.40;;;1.00;;
13741;SDS011;8461;52.356;10.704;2023-03-14T03:59:17;2.37;;;0.97;;
13741;SDS011;8461;52.356;10.704;2023-03-14T04:01:43;2.37;;;1.10;;
13741;SDS011;8461;52.356;10.704;2023-03-14T04:04:09;6.30;;;1.20;;
13741;SDS011;8461;52.356;10.704;2023-03-14T04:06:34;2.43;;;0.90;;
13741;SDS011;8461;52.356;10.704;2023-03-14T04:09:00;2.07;;;0.80;;
13741;SDS011;8461;52.356;10.704;2023-03-14T04:11:26;1.83;;;0.60;;
13741;SDS011;8461;52.356;10.704;2023-03-14T04:13:51;2.37;;;0.60;;
13741;SDS011;8461;52.356;10.704;2023-03-14T04:16:18;3.73;;;1.00;;
13741;SDS011;8461;52.356;10.704;2023-03-14T04:18:48;1.53;;;0.80;;
13741;SDS011;8461;52.356;10.704;2023-03-14T04:21:14;1.60;;;0.80;;
13741;SDS011;8461;52.356;10.704;2023-03-14T04:23:40;3.23;;;0.87;;
13741;SDS011;8461;52.356;10.704;2023-03-14T04:26:06;2.23;;;0.60;;
13741;SDS011;8461;52.356;10.704;2023-03-14T04:28:31;1.93;;;0.97;;
13741;SDS011;8461;52.356;10.704;2023-03-14T04:30:57;2.67;;;0.80;;
13741;SDS011;8461;52.356;10.704;2023-03-14T04:33:23;2.07;;;0.90;;
13741;SDS011;8461;52.356;10.704;2023-03-14T04:35:48;2.93;;;0.63;;
13741;SDS011;8461;52.356;10.704;2023-03-14T04:38:17;2.03;;;0.80;;
13741;SDS011;8461;52.356;10.704;2023-03-14T04:40:43;1.43;;;0.70;;
13741;SDS011;8461;52.356;10.704;2023-03-14T04:43:09;3.67;;;0.90;;
13741;SDS011;8461;52.356;10.704;2023-03-14T04:45:35;2.40;;;0.83;;
13741;SDS011;8461;52.356;10.704;2023-03-14T04:48:01;1.73;;;0.87;;
13741;SDS011;8461;52.356;10.704;2023-03-14T04:50:27;0.87;;;0.53;;
13741;SDS011;8461;52.356;10.704;2023-03-14T04:52:52;3.20;;;1.00;;
13741;SDS011;8461;52.356;10.704;2023-03-14T04:55:18;1.10;;;0.87;;
13741;SDS011;8461;52.356;10.704;2023-03-14T04:57:43;3.13;;;0.60;;
13741;SDS011;8461;52.356;10.704;2023-03-14T05:00:09;1.70;;;0.53;;
13741;SDS011;8461;52.356;10.704;2023-03-14T05:02:35;0.67;;;0.53;;
13741;SDS011;8461;52.356;10.704;2023-03-14T05:05:01;2.60;;;0.60;;
13741;SDS011;8461;52.356;10.704;2023-03-14T05:07:26;2.63;;;0.60;;
13741;SDS011;8461;52.356;10.704;2023-03-14T05:09:52;0.40;;;0.23;;
13741;SDS011;8461;52.356;10.704;2023-03-14T05:12:18;1.50;;;0.67;;
13741;SDS011;8461;52.356;10.704;2023-03-14T05:14:44;1.13;;;0.63;;
13741;SDS011;8461;52.356;10.704;2023-03-14T05:17:10;1.30;;;0.50;;
13741;SDS011;8461;52.356;10.704;2023-03-14T05:19:36;1.17;;;0.60;;
13741;SDS011;8461;52.356;10.704;2023-03-14T05:22:02;0.97;;;0.53;;
13741;SDS011;8461;52.356;10.704;2023-03-14T05:24:27;0.90;;;0.60;;
13741;SDS011;8461;52.356;10.704;2023-03-14T05:26:53;3.03;;;0.87;;
13741;SDS011;8461;52.356;10.704;2023-03-14T05:29:19;1.97;;;0.70;;
13741;SDS011;8461;52.356;10.704;2023-03-14T05:31:44;3.40;;;0.43;;
13741;SDS011;8461;52.356;10.704;2023-03-14T05:34:10;1.20;;;0.67;;
13741;SDS011;8461;52.356;10.704;2023-03-14T05:36:35;1.33;;;0.77;;
13741;SDS011;8461;52.356;10.704;2023-03-14T05:39:01;2.10;;;0.60;;
13741;SDS011;8461;52.356;10.704;2023-03-14T05:41:27;1.60;;;0.37;;
13741;SDS011;8461;52.356;10.704;2023-03-14T05:43:52;1.57;;;0.33;;
13741;SDS011;8461;52.356;10.704;2023-03-14T05:46:18;3.70;;;0.40;;
13741;SDS011;8461;52.356;10.704;2023-03-14T05:48:43;0.70;;;0.40;;
13741;SDS011;8461;52.356;10.704;2023-03-14T05:51:09;0.70;;;0.50;;
13741;SDS011;8461;52.356;10.704;2023-03-14T05:53:34;1.30;;;0.30;;
13741;SDS011;8461;52.356;10.704;2023-03-14T05:56:00;2.77;;;0.40;;
13741;SDS011;8461;52.356;10.704;2023-03-14T05:58:26;1.13;;;0.40;;
13741;SDS011;8461;52.356;10.704;2023-03-14T06:00:51;1.70;;;0.43;;
13741;SDS011;8461;52.356;10.704;2023-03-14T06:03:17;1.77;;;0.40;;
13741;SDS011;8461;52.356;10.704;2023-03-14T06:05:42;1.03;;;0.43;;
13741;SDS011;8461;52.356;10.704;2023-03-14T06:08:08;0.83;;;0.40;;
13741;SDS011;8461;52.356;10.704;2023-03-14T06:10:34;2.20;;;0.40;;
13741;SDS011;8461;52.356;10.704;2023-03-14T06:13:00;1.40;;;0.47;;
13741;SDS011;8461;52.356;10.704;2023-03-14T06:15:26;1.70;;;0.80;;
13741;SDS011;8461;52.356;10.704;2023-03-14T06:17:53;1.80;;;0.40;;
13741;SDS011;8461;52.356;10.704;2023-03-14T06:20:22;0.50;;;0.30;;
13741;SDS011;8461;52.356;10.704;2023-03-14T06:22:47;1.23;;;0.30;;
13741;SDS011;8461;52.356;10.704;2023-03-14T06:25:13;2.47;;;0.30;;
13741;SDS011;8461;52.356;10.704;2023-03-14T06:27:38;1.13;;;0.20;;
13741;SDS011;8461;52.356;10.704;2023-03-14T06:30:04;2.20;;;0.47;;
13741;SDS011;8461;52.356;10.704;2023-03-14T06:32:30;0.93;;;0.40;;
13741;SDS011;8461;52.356;10.704;2023-03-14T06:34:56;1.40;;;0.33;;
13741;SDS011;8461;52.356;10.704;2023-03-14T06:37:25;1.43;;;0.40;;
13741;SDS011;8461;52.356;10.704;2023-03-14T06:39:54;0.43;;;0.40;;
13741;SDS011;8461;52.356;10.704;2023-03-14T06:42:21;1.43;;;0.40;;
13741;SDS011;8461;52.356;10.704;2023-03-14T06:44:46;1.97;;;0.30;;
13741;SDS011;8461;52.356;10.704;2023-03-14T06:47:12;0.90;;;0.60;;
13741;SDS011;8461;52.356;10.704;2023-03-14T06:49:38;1.17;;;0.40;;
13741;SDS011;8461;52.356;10.704;2023-03-14T06:52:03;1.20;;;0.43;;
13741;SDS011;8461;52.356;10.704;2023-03-14T06:54:29;3.53;;;0.67;;
13741;SDS011;8461;52.356;10.704;2023-03-14T06:56:55;1.83;;;0.60;;
13741;SDS011;8461;52.356;10.704;2023-03-14T06:59:20;1.00;;;0.53;;
13741;SDS011;8461;52.356;10.704;2023-03-14T07:01:46;3.37;;;0.87;;
13741;SDS011;8461;52.356;10.704;2023-03-14T07:04:13;1.10;;;0.93;;
13741;SDS011;8461;52.356;10.704;2023-03-14T07:06:38;2.13;;;0.50;;
13741;SDS011;8461;52.356;10.704;2023-03-14T07:09:04;1.10;;;0.60;;
13741;SDS011;8461;52.356;10.704;2023-03-14T07:11:30;4.33;;;0.60;;
13741;SDS011;8461;52.356;10.704;2023-03-14T07:13:56;0.87;;;0.37;;
13741;SDS011;8461;52.356;10.704;2023-03-14T07:16:21;2.27;;;0.40;;
13741;SDS011;8461;52.356;10.704;2023-03-14T07:18:47;0.83;;;0.53;;
13741;SDS011;8461;52.356;10.704;2023-03-14T07:21:14;1.80;;;0.60;;
13741;SDS011;8461;52.356;10.704;2023-03-14T07:23:39;0.83;;;0.50;;
13741;SDS011;8461;52.356;10.704;2023-03-14T07:26:05;2.83;;;0.80;;
13741;SDS011;8461;52.356;10.704;2023-03-14T07:28:31;0.83;;;0.47;;
13741;SDS011;8461;52.356;10.704;2023-03-14T07:30:56;1.00;;;0.30;;
13741;SDS011;8461;52.356;10.704;2023-03-14T07:33:22;3.50;;;0.60;;
13741;SDS011;8461;52.356;10.704;2023-03-14T07:35:48;2.40;;;0.70;;
13741;SDS011;8461;52.356;10.704;2023-03-14T07:38:14;1.43;;;0.50;;
13741;SDS011;8461;52.356;10.704;2023-03-14T07:40:41;0.67;;;0.23;;
13741;SDS011;8461;52.356;10.704;2023-03-14T07:43:06;1.03;;;0.40;;
13741;SDS011;8461;52.356;10.704;2023-03-14T07:45:32;3.73;;;0.77;;
13741;SDS011;8461;52.356;10.704;2023-03-14T07:47:57;1.80;;;0.70;;
13741;SDS011;8461;52.356;10.704;2023-03-14T07:50:23;2.80;;;0.50;;
13741;SDS011;8461;52.356;10.704;2023-03-14T07:52:50;1.77;;;0.50;;
13741;SDS011;8461;52.356;10.704;2023-03-14T07:55:16;1.70;;;0.50;;
13741;SDS011;8461;52.356;10.704;2023-03-14T07:57:41;0.83;;;0.40;;
13741;SDS011;8461;52.356;10.704;2023-03-14T08:00:07;1.67;;;0.57;;
13741;SDS011;8461;52.356;10.704;2023-03-14T08:02:33;3.40;;;0.60;;
13741;SDS011;8461;52.356;10.704;2023-03-14T08:05:01;2.03;;;0.30;;
13741;SDS011;8461;52.356;10.704;2023-03-14T08:07:26;0.50;;;0.40;;
13741;SDS011;8461;52.356;10.704;2023-03-14T08:09:52;1.43;;;0.40;;
13741;SDS011;8461;52.356;10.704;2023-03-14T08:12:17;1.53;;;0.40;;
13741;SDS011;8461;52.356;10.704;2023-03-14T08:14:43;0.80;;;0.43;;
13741;SDS011;8461;52.356;10.704;2023-03-14T08:17:08;4.07;;;0.67;;
13741;SDS011;8461;52.356;10.704;2023-03-14T08:19:34;1.90;;;0.60;;
13741;SDS011;8461;52.356;10.704;2023-03-14T08:22:00;1.47;;;0.50;;
13741;SDS011;8461;52.356;10.704;2023-03-14T08:24:25;5.07;;;1.07;;
13741;SDS011;8461;52.356;10.704;2023-03-14T08:26:51;3.93;;;0.50;;
13741;SDS011;8461;52.356;10.704;2023-03-14T08:29:16;1.73;;;0.63;;
13741;SDS011;8461;52.356;10.704;2023-03-14T08:31:42;1.93;;;0.40;;
13741;SDS011;8461;52.356;10.704;2023-03-14T08:34:07;3.90;;;0.70;;
13741;SDS011;8461;52.356;10.704;2023-03-14T08:36:33;2.50;;;0.50;;
13741;SDS011;8461;52.356;10.704;2023-03-14T08:38:59;2.57;;;0.70;;
13741;SDS011;8461;52.356;10.704;2023-03-14T08:41:24;2.83;;;0.80;;
13741;SDS011;8461;52.356;10.704;2023-03-14T08:43:50;1.30;;;0.40;;
13741;SDS011;8461;52.356;10.704;2023-03-14T08:46:15;3.67;;;0.57;;
13741;SDS011;8461;52.356;10.704;2023-03-14T08:48:44;5.60;;;1.13;;
13741;SDS011;8461;52.356;10.704;2023-03-14T08:51:10;1.27;;;0.60;;
13741;SDS011;8461;52.356;10.704;2023-03-14T08:53:37;1.37;;;0.70;;
13741;SDS011;8461;52.356;10.704;2023-03-14T08:56:03;1.70;;;0.50;;
13741;SDS011;8461;52.356;10.704;2023-03-14T08:58:31;2.73;;;0.40;;
13741;SDS011;8461;52.356;10.704;2023-03-14T09:00:57;2.03;;;0.43;;
13741;SDS011;8461;52.356;10.704;2023-03-14T09:03:23;2.03;;;0.63;;
13741;SDS011;8461;52.356;10.704;2023-03-14T09:05:49;2.43;;;0.57;;
13741;SDS011;8461;52.356;10.704;2023-03-14T09:08:15;3.40;;;0.60;;
13741;SDS011;8461;52.356;10.704;2023-03-14T09:10:42;1.70;;;0.40;;
13741;SDS011;8461;52.356;10.704;2023-03-14T09:13:07;2.17;;;0.50;;
13741;SDS011;8461;52.356;10.704;2023-03-14T09:15:33;1.77;;;0.50;;
13741;SDS011;8461;52.356;10.704;2023-03-14T09:17:59;0.50;;;0.30;;
13741;SDS011;8461;52.356;10.704;2023-03-14T09:20:24;2.70;;;0.50;;
13741;SDS011;8461;52.356;10.704;2023-03-14T09:22:50;2.10;;;0.50;;
13741;SDS011;8461;52.356;10.704;2023-03-14T09:25:16;1.07;;;0.40;;
13741;SDS011;8461;52.356;10.704;2023-03-14T09:27:41;1.00;;;0.50;;
13741;SDS011;8461;52.356;10.704;2023-03-14T09:30:07;2.87;;;0.53;;
13741;SDS011;8461;52.356;10.704;2023-03-14T09:32:33;2.33;;;0.50;;
13741;SDS011;8461;52.356;10.704;2023-03-14T09:34:59;4.53;;;0.77;;
13741;SDS011;8461;52.356;10.704;2023-03-14T09:37:24;1.07;;;0.40;;
13741;SDS011;8461;52.356;10.704;2023-03-14T09:39:50;2.93;;;0.80;;
13741;SDS011;8461;52.356;10.704;2023-03-14T09:42:20;2.53;;;0.70;;
13741;SDS011;8461;52.356;10.704;2023-03-14T09:44:56;1.57;;;0.40;;
13741;SDS011;8461;52.356;10.704;2023-03-14T09:47:25;2.93;;;0.50;;
13741;SDS011;8461;52.356;10.704;2023-03-14T09:49:51;3.33;;;0.50;;
13741;SDS011;8461;52.356;10.704;2023-03-14T09:52:20;1.07;;;0.40;;
13741;SDS011;8461;52.356;10.704;2023-03-14T09:54:53;1.13;;;0.47;;
13741;SDS011;8461;52.356;10.704;2023-03-14T09:57:25;1.53;;;0.53;;
13741;SDS011;8461;52.356;10.704;2023-03-14T09:59:53;0.23;;;0.20;;
13741;SDS011;8461;52.356;10.704;2023-03-14T10:02:23;1.63;;;0.33;;
13741;SDS011;8461;52.356;10.704;2023-03-14T10:04:50;3.27;;;0.90;;
13741;SDS011;8461;52.356;10.704;2023-03-14T10:07:19;1.63;;;0.50;;
13741;SDS011;8461;52.356;10.704;2023-03-14T10:09:53;3.37;;;0.50;;
13741;SDS011;8461;52.356;10.704;2023-03-14T10:12:19;1.73;;;0.40;;
13741;SDS011;8461;52.356;10.704;2023-03-14T10:14:46;0.70;;;0.30;;
13741;SDS011;8461;52.356;10.704;2023-03-14T10:17:14;1.60;;;0.30;;
13741;SDS011;8461;52.356;10.704;2023-03-14T10:19:52;2.80;;;0.30;;
13741;SDS011;8461;52.356;10.704;2023-03-14T10:22:18;1.00;;;0.20;;
13741;SDS011;8461;52.356;10.704;2023-03-14T10:24:55;2.17;;;0.50;;
13741;SDS011;8461;52.356;10.704;2023-03-14T10:27:28;0.97;;;0.23;;
13741;SDS011;8461;52.356;10.704;2023-03-14T10:30:00;2.40;;;0.30;;
13741;SDS011;8461;52.356;10.704;2023-03-14T10:32:33;1.20;;;0.07;;
13741;SDS011;8461;52.356;10.704;2023-03-14T10:38:15;0.53;;;0.20;;
13741;SDS011;8461;52.356;10.704;2023-03-14T10:40:38;0.60;;;0.10;;
13741;SDS011;8461;52.356;10.704;2023-03-14T10:43:06;0.37;;;0.20;;
13741;SDS011;8461;52.356;10.704;2023-03-14T10:45:41;0.77;;;0.30;;
13741;SDS011;8461;52.356;10.704;2023-03-14T10:53:19;0.30;;;0.10;;
13741;SDS011;8461;52.356;10.704;2023-03-14T10:55:45;0.10;;;0.00;;
13741;SDS011;8461;52.356;10.704;2023-03-14T10:58:21;0.87;;;0.20;;
13741;SDS011;8461;52.356;10.704;2023-03-14T11:00:54;0.60;;;0.20;;
13741;SDS011;8461;52.356;10.704;2023-03-14T11:03:29;0.60;;;0.10;;
13741;SDS011;8461;52.356;10.704;2023-03-14T11:06:14;0.40;;;0.10;;
13741;SDS011;8461;52.356;10.704;2023-03-14T11:08:54;2.33;;;0.30;;
13741;SDS011;8461;52.356;10.704;2023-03-14T11:11:31;0.40;;;0.20;;
13741;SDS011;8461;52.356;10.704;2023-03-14T11:27:43;0.20;;;0.10;;
13741;SDS011;8461;52.356;10.704;2023-03-14T11:33:05;0.30;;;0.17;;
13741;SDS011;8461;52.356;10.704;2023-03-14T11:35:43;0.83;;;0.40;;
13741;SDS011;8461;52.356;10.704;2023-03-14T11:41:01;0.10;;;0.10;;
13741;SDS011;8461;52.356;10.704;2023-03-14T11:43:41;0.40;;;0.13;;
13741;SDS011;8461;52.356;10.704;2023-03-14T11:46:15;0.20;;;0.17;;
13741;SDS011;8461;52.356;10.704;2023-03-14T11:51:43;0.40;;;0.20;;
13741;SDS011;8461;52.356;10.704;2023-03-14T11:54:29;0.27;;;0.20;;
13741;SDS011;8461;52.356;10.704;2023-03-14T11:57:05;0.10;;;0.00;;
13741;SDS011;8461;52.356;10.704;2023-03-14T12:08:07;0.30;;;0.20;;
13741;SDS011;8461;52.356;10.704;2023-03-14T12:10:46;0.30;;;0.10;;
13741;SDS011;8461;52.356;10.704;2023-03-14T12:13:18;0.50;;;0.27;;
13741;SDS011;8461;52.356;10.704;2023-03-14T12:16:30;0.30;;;0.20;;
13741;SDS011;8461;52.356;10.704;2023-03-14T12:18:53;2.80;;;0.90;;
13741;SDS011;8461;52.356;10.704;2023-03-14T12:21:19;0.43;;;0.20;;
13741;SDS011;8461;52.356;10.704;2023-03-14T12:23:49;1.63;;;0.83;;
13741;SDS011;8461;52.356;10.704;2023-03-14T12:26:26;1.17;;;0.40;;
13741;SDS011;8461;52.356;10.704;2023-03-14T12:29:14;0.37;;;0.30;;
13741;SDS011;8461;52.356;10.704;2023-03-14T12:31:42;1.70;;;0.40;;
13741;SDS011;8461;52.356;10.704;2023-03-14T12:46:58;0.30;;;0.30;;
13741;SDS011;8461;52.356;10.704;2023-03-14T12:49:52;0.30;;;0.30;;
13741;SDS011;8461;52.356;10.704;2023-03-14T12:52:22;0.63;;;0.30;;
13741;SDS011;8461;52.356;10.704;2023-03-14T12:55:19;0.20;;;0.20;;
13741;SDS011;8461;52.356;10.704;2023-03-14T12:57:59;0.27;;;0.27;;
13741;SDS011;8461;52.356;10.704;2023-03-14T13:00:50;0.20;;;0.20;;
13741;SDS011;8461;52.356;10.704;2023-03-14T13:03:36;0.73;;;0.27;;
13741;SDS011;8461;52.356;10.704;2023-03-14T13:11:54;0.70;;;0.23;;
13741;SDS011;8461;52.356;10.704;2023-03-14T13:14:20;1.60;;;0.20;;
13741;SDS011;8461;52.356;10.704;2023-03-14T13:16:48;0.63;;;0.40;;
13741;SDS011;8461;52.356;10.704;2023-03-14T13:19:27;0.50;;;0.40;;
13741;SDS011;8461;52.356;10.704;2023-03-14T13:22:02;0.20;;;0.20;;
13741;SDS011;8461;52.356;10.704;2023-03-14T13:24:33;0.20;;;0.20;;
13741;SDS011;8461;52.356;10.704;2023-03-14T13:26:59;0.30;;;0.30;;
13741;SDS011;8461;52.356;10.704;2023-03-14T13:29:29;0.73;;;0.20;;
13741;SDS011;8461;52.356;10.704;2023-03-14T13:31:56;1.30;;;0.60;;
13741;SDS011;8461;52.356;10.704;2023-03-14T13:34:33;0.23;;;0.23;;
13741;SDS011;8461;52.356;10.704;2023-03-14T13:37:00;0.90;;;0.50;;
13741;SDS011;8461;52.356;10.704;2023-03-14T13:39:26;0.93;;;0.30;;
13741;SDS011;8461;52.356;10.704;2023-03-14T13:41:54;0.20;;;0.20;;
13741;SDS011;8461;52.356;10.704;2023-03-14T13:44:36;0.40;;;0.40;;
13741;SDS011;8461;52.356;10.704;2023-03-14T13:47:05;0.60;;;0.50;;
13741;SDS011;8461;52.356;10.704;2023-03-14T13:49:37;0.70;;;0.47;;
13741;SDS011;8461;52.356;10.704;2023-03-14T13:52:04;0.50;;;0.50;;
13741;SDS011;8461;52.356;10.704;2023-03-14T13:54:54;2.67;;;0.73;;
13741;SDS011;8461;52.356;10.704;2023-03-14T13:57:21;0.67;;;0.60;;
13741;SDS011;8461;52.356;10.704;2023-03-14T14:00:17;0.50;;;0.50;;
13741;SDS011;8461;52.356;10.704;2023-03-14T14:02:42;0.83;;;0.50;;
13741;SDS011;8461;52.356;10.704;2023-03-14T14:05:10;2.50;;;0.40;;
13741;SDS011;8461;52.356;10.704;2023-03-14T14:07:36;2.77;;;0.70;;
13741;SDS011;8461;52.356;10.704;2023-03-14T14:10:03;1.97;;;0.77;;
13741;SDS011;8461;52.356;10.704;2023-03-14T14:20:07;5.53;;;0.97;;
13741;SDS011;8461;52.356;10.704;2023-03-14T14:22:41;4.27;;;1.13;;
13741;SDS011;8461;52.356;10.704;2023-03-14T14:25:12;3.70;;;0.93;;
13741;SDS011;8461;52.356;10.704;2023-03-14T14:27:39;6.40;;;1.30;;
13741;SDS011;8461;52.356;10.704;2023-03-14T14:32:43;7.17;;;1.20;;
13741;SDS011;8461;52.356;10.704;2023-03-14T14:35:10;9.83;;;2.77;;
13741;SDS011;8461;52.356;10.704;2023-03-14T14:37:46;3.00;;;1.70;;
13741;SDS011;8461;52.356;10.704;2023-03-14T14:40:18;6.30;;;2.33;;
13741;SDS011;8461;52.356;10.704;2023-03-14T14:42:46;6.67;;;3.63;;
13741;SDS011;8461;52.356;10.704;2023-03-14T14:45:16;4.27;;;2.07;;
13741;SDS011;8461;52.356;10.704;2023-03-14T14:47:54;18.37;;;9.23;;
13741;SDS011;8461;52.356;10.704;2023-03-14T14:52:57;8.20;;;4.40;;
13741;SDS011;8461;52.356;10.704;2023-03-14T14:55:28;6.70;;;2.60;;
13741;SDS011;8461;52.356;10.704;2023-03-14T14:57:57;4.87;;;2.70;;
13741;SDS011;8461;52.356;10.704;2023-03-14T15:00:23;12.17;;;5.70;;
13741;SDS011;8461;52.356;10.704;2023-03-14T15:02:52;9.17;;;5.10;;
13741;SDS011;8461;52.356;10.704;2023-03-14T15:05:21;11.57;;;3.00;;
13741;SDS011;8461;52.356;10.704;2023-03-14T15:07:50;4.33;;;1.53;;
13741;SDS011;8461;52.356;10.704;2023-03-14T15:10:17;4.63;;;2.00;;
13741;SDS011;8461;52.356;10.704;2023-03-14T15:12:45;6.93;;;1.87;;
13741;SDS011;8461;52.356;10.704;2023-03-14T15:15:12;11.23;;;1.90;;
13741;SDS011;8461;52.356;10.704;2023-03-14T15:17:38;5.23;;;1.20;;
13741;SDS011;8461;52.356;10.704;2023-03-14T15:20:04;7.97;;;1.03;;
13741;SDS011;8461;52.356;10.704;2023-03-14T15:22:31;9.83;;;1.77;;
13741;SDS011;8461;52.356;10.704;2023-03-14T15:24:57;4.90;;;1.00;;
13741;SDS011;8461;52.356;10.704;2023-03-14T15:27:22;3.07;;;1.27;;
13741;SDS011;8461;52.356;10.704;2023-03-14T15:29:48;5.40;;;1.40;;
13741;SDS011;8461;52.356;10.704;2023-03-14T15:32:14;17.20;;;2.90;;
13741;SDS011;8461;52.356;10.704;2023-03-14T15:34:41;12.73;;;2.43;;
13741;SDS011;8461;52.356;10.704;2023-03-14T15:37:11;7.53;;;1.67;;
13741;SDS011;8461;52.356;10.704;2023-03-14T15:39:38;7.63;;;1.93;;
13741;SDS011;8461;52.356;10.704;2023-03-14T15:42:04;5.07;;;1.87;;
13741;SDS011;8461;52.356;10.704;2023-03-14T15:44:30;11.77;;;2.63;;
13741;SDS011;8461;52.356;10.704;2023-03-14T15:46:56;9.13;;;2.30;;
13741;SDS011;8461;52.356;10.704;2023-03-14T15:49:21;7.87;;;2.50;;
13741;SDS011;8461;52.356;10.704;2023-03-14T15:51:47;9.20;;;1.60;;
13741;SDS011;8461;52.356;10.704;2023-03-14T15:54:13;11.17;;;5.00;;
13741;SDS011;8461;52.356;10.704;2023-03-14T15:56:39;2.97;;;1.27;;
13741;SDS011;8461;52.356;10.704;2023-03-14T15:59:04;9.57;;;3.30;;
13741;SDS011;8461;52.356;10.704;2023-03-14T16:01:30;5.43;;;1.80;;
13741;SDS011;8461;52.356;10.704;2023-03-14T16:03:55;6.83;;;1.37;;
13741;SDS011;8461;52.356;10.704;2023-03-14T16:06:21;5.13;;;2.97;;
13741;SDS011;8461;52.356;10.704;2023-03-14T16:08:46;5.97;;;1.10;;
13741;SDS011;8461;52.356;10.704;2023-03-14T16:11:13;5.67;;;1.53;;
13741;SDS011;8461;52.356;10.704;2023-03-14T16:13:40;2.43;;;1.60;;